sensor_id;sensor_type;location;lat;lon;timestamp;temperature;humidity
48206;DHT22;33995;48.202;16.260;2022-12-01T00:01:23;3.80;99.90
48206;DHT22;33995;48.202;16.260;2022-12-01T00:04:05;3.70;99.90
48206;DHT22;33995;48.202;16.260;2022-12-01T00:06:35;3.70;99.90
48206;DHT22;33995;48.202;16.260;2022-12-01T00:09:11;3.70;99.90
48206;DHT22;33995;48.202;16.260;2022-12-01T00:12:03;3.70;99.90
48206;DHT22;33995;48.202;16.260;2022-12-01T00:14:37;3.60;99.90
48206;DHT22;33995;48.202;16.260;2022-12-01T00:17:11;3.40;99.90
48206;DHT22;33995;48.202;16.260;2022-12-01T00:19:43;3.30;99.90
48206;DHT22;33995;48.202;16.260;2022-12-01T00:22:26;3.30;99.90
48206;DHT22;33995;48.202;16.260;2022-12-01T00:24:55;3.30;99.90
48206;DHT22;33995;48.202;16.260;2022-12-01T00:27:29;3.30;99.90
48206;DHT22;33995;48.202;16.260;2022-12-01T00:30:01;3.30;99.90
48206;DHT22;33995;48.202;16.260;2022-12-01T00:32:30;3.30;99.90
48206;DHT22;33995;48.202;16.260;2022-12-01T00:35:02;3.30;99.90
48206;DHT22;33995;48.202;16.260;2022-12-01T00:37:32;3.20;99.90
48206;DHT22;33995;48.202;16.260;2022-12-01T00:40:12;3.20;99.90
48206;DHT22;33995;48.202;16.260;2022-12-01T00:42:51;3.20;99.90
48206;DHT22;33995;48.202;16.260;2022-12-01T00:45:24;3.30;99.90
48206;DHT22;33995;48.202;16.260;2022-12-01T00:47:58;3.30;99.90
48206;DHT22;33995;48.202;16.260;2022-12-01T00:50:35;3.10;99.90
48206;DHT22;33995;48.202;16.260;2022-12-01T00:53:04;3.10;99.90
48206;DHT22;33995;48.202;16.260;2022-12-01T00:55:35;3.10;99.90
48206;DHT22;33995;48.202;16.260;2022-12-01T00:58:05;3.00;99.90
48206;DHT22;33995;48.202;16.260;2022-12-01T01:00:59;3.00;99.90
48206;DHT22;33995;48.202;16.260;2022-12-01T01:03:35;3.00;99.90
48206;DHT22;33995;48.202;16.260;2022-12-01T01:06:08;3.00;99.90
48206;DHT22;33995;48.202;16.260;2022-12-01T01:08:40;2.90;99.90
48206;DHT22;33995;48.202;16.260;2022-12-01T01:11:10;2.90;99.90
48206;DHT22;33995;48.202;16.260;2022-12-01T01:13:41;2.80;99.90
48206;DHT22;33995;48.202;16.260;2022-12-01T01:16:19;2.80;99.90
48206;DHT22;33995;48.202;16.260;2022-12-01T01:18:48;2.70;99.90
48206;DHT22;33995;48.202;16.260;2022-12-01T01:21:20;2.60;99.90
48206;DHT22;33995;48.202;16.260;2022-12-01T01:23:49;2.70;99.90
48206;DHT22;33995;48.202;16.260;2022-12-01T01:26:28;2.80;99.90
48206;DHT22;33995;48.202;16.260;2022-12-01T01:29:03;2.80;99.90
48206;DHT22;33995;48.202;16.260;2022-12-01T01:31:40;2.70;99.90
48206;DHT22;33995;48.202;16.260;2022-12-01T01:34:10;2.80;99.90
48206;DHT22;33995;48.202;16.260;2022-12-01T01:36:46;2.80;99.90
48206;DHT22;33995;48.202;16.260;2022-12-01T01:39:17;2.80;99.90
48206;DHT22;33995;48.202;16.260;2022-12-01T01:41:46;2.80;99.90
48206;DHT22;33995;48.202;16.260;2022-12-01T01:44:55;2.80;99.90
48206;DHT22;33995;48.202;16.260;2022-12-01T01:47:30;2.80;99.90
48206;DHT22;33995;48.202;16.260;2022-12-01T01:50:10;2.80;99.90
48206;DHT22;33995;48.202;16.260;2022-12-01T01:52:51;2.80;99.90
48206;DHT22;33995;48.202;16.260;2022-12-01T01:55:28;2.70;99.90
48206;DHT22;33995;48.202;16.260;2022-12-01T01:58:07;2.70;99.90
48206;DHT22;33995;48.202;16.260;2022-12-01T02:00:41;2.80;99.90
48206;DHT22;33995;48.202;16.260;2022-12-01T02:03:13;2.70;99.90
48206;DHT22;33995;48.202;16.260;2022-12-01T02:05:45;2.70;99.90
48206;DHT22;33995;48.202;16.260;2022-12-01T02:08:16;2.70;99.90
48206;DHT22;33995;48.202;16.260;2022-12-01T02:11:21;2.60;99.90
48206;DHT22;33995;48.202;16.260;2022-12-01T02:16:55;2.60;99.90
48206;DHT22;33995;48.202;16.260;2022-12-01T02:40:39;2.50;99.90
48206;DHT22;33995;48.202;16.260;2022-12-01T02:46:14;2.50;99.90
48206;DHT22;33995;48.202;16.260;2022-12-01T02:48:47;2.50;99.90
48206;DHT22;33995;48.202;16.260;2022-12-01T02:51:31;2.50;99.90
48206;DHT22;33995;48.202;16.260;2022-12-01T02:54:05;2.50;99.90
48206;DHT22;33995;48.202;16.260;2022-12-01T02:56:34;2.40;99.90
48206;DHT22;33995;48.202;16.260;2022-12-01T02:59:14;2.40;99.90
48206;DHT22;33995;48.202;16.260;2022-12-01T03:10:54;2.40;99.90
48206;DHT22;33995;48.202;16.260;2022-12-01T03:13:47;2.30;99.90
48206;DHT22;33995;48.202;16.260;2022-12-01T03:16:35;2.30;99.90
48206;DHT22;33995;48.202;16.260;2022-12-01T03:19:32;2.30;99.90
48206;DHT22;33995;48.202;16.260;2022-12-01T03:22:09;2.30;99.90
48206;DHT22;33995;48.202;16.260;2022-12-01T03:24:55;2.30;99.90
48206;DHT22;33995;48.202;16.260;2022-12-01T03:27:28;2.30;99.90
48206;DHT22;33995;48.202;16.260;2022-12-01T03:30:03;2.30;99.90
48206;DHT22;33995;48.202;16.260;2022-12-01T03:32:49;2.10;99.90
48206;DHT22;33995;48.202;16.260;2022-12-01T03:35:42;2.10;99.90
48206;DHT22;33995;48.202;16.260;2022-12-01T03:38:23;2.10;99.90
48206;DHT22;33995;48.202;16.260;2022-12-01T03:40:57;2.10;99.90
48206;DHT22;33995;48.202;16.260;2022-12-01T03:43:35;2.10;99.90
48206;DHT22;33995;48.202;16.260;2022-12-01T03:46:22;2.00;99.90
48206;DHT22;33995;48.202;16.260;2022-12-01T03:48:54;2.00;99.90
48206;DHT22;33995;48.202;16.260;2022-12-01T03:57:45;1.90;99.90
48206;DHT22;33995;48.202;16.260;2022-12-01T04:00:19;2.00;99.90
48206;DHT22;33995;48.202;16.260;2022-12-01T04:03:03;1.90;99.90
48206;DHT22;33995;48.202;16.260;2022-12-01T04:05:35;2.00;99.90
48206;DHT22;33995;48.202;16.260;2022-12-01T04:08:20;1.90;99.90
48206;DHT22;33995;48.202;16.260;2022-12-01T04:11:03;1.90;99.90
48206;DHT22;33995;48.202;16.260;2022-12-01T04:13:59;1.90;99.90
48206;DHT22;33995;48.202;16.260;2022-12-01T04:16:31;1.90;99.90
48206;DHT22;33995;48.202;16.260;2022-12-01T04:18:59;2.00;99.90
48206;DHT22;33995;48.202;16.260;2022-12-01T04:21:42;1.80;99.90
48206;DHT22;33995;48.202;16.260;2022-12-01T04:24:16;1.70;99.90
48206;DHT22;33995;48.202;16.260;2022-12-01T04:26:45;1.80;99.90
48206;DHT22;33995;48.202;16.260;2022-12-01T04:29:16;1.90;99.90
48206;DHT22;33995;48.202;16.260;2022-12-01T04:31:46;1.80;99.90
48206;DHT22;33995;48.202;16.260;2022-12-01T04:34:14;1.70;99.90
48206;DHT22;33995;48.202;16.260;2022-12-01T04:36:42;1.70;99.90
48206;DHT22;33995;48.202;16.260;2022-12-01T04:39:12;1.80;99.90
48206;DHT22;33995;48.202;16.260;2022-12-01T04:41:40;1.70;99.90
48206;DHT22;33995;48.202;16.260;2022-12-01T04:44:09;1.80;99.90
48206;DHT22;33995;48.202;16.260;2022-12-01T04:46:44;1.80;99.90
48206;DHT22;33995;48.202;16.260;2022-12-01T04:49:12;1.80;99.90
48206;DHT22;33995;48.202;16.260;2022-12-01T04:51:42;1.70;99.90
48206;DHT22;33995;48.202;16.260;2022-12-01T04:54:13;1.80;99.90
48206;DHT22;33995;48.202;16.260;2022-12-01T04:56:52;1.80;99.90
48206;DHT22;33995;48.202;16.260;2022-12-01T04:59:23;1.70;99.90
48206;DHT22;33995;48.202;16.260;2022-12-01T05:01:57;1.80;99.90
48206;DHT22;33995;48.202;16.260;2022-12-01T05:04:28;1.80;99.90
48206;DHT22;33995;48.202;16.260;2022-12-01T05:07:00;1.80;99.90
48206;DHT22;33995;48.202;16.260;2022-12-01T05:09:31;1.90;99.90
48206;DHT22;33995;48.202;16.260;2022-12-01T05:12:02;2.00;99.90
48206;DHT22;33995;48.202;16.260;2022-12-01T05:14:34;1.90;99.90
48206;DHT22;33995;48.202;16.260;2022-12-01T05:17:08;1.90;99.90
48206;DHT22;33995;48.202;16.260;2022-12-01T05:19:39;1.70;99.90
48206;DHT22;33995;48.202;16.260;2022-12-01T05:22:29;1.70;99.90
48206;DHT22;33995;48.202;16.260;2022-12-01T05:25:20;1.80;99.90
48206;DHT22;33995;48.202;16.260;2022-12-01T05:27:55;1.90;99.90
48206;DHT22;33995;48.202;16.260;2022-12-01T05:30:35;1.90;99.90
48206;DHT22;33995;48.202;16.260;2022-12-01T05:33:10;2.00;99.90
48206;DHT22;33995;48.202;16.260;2022-12-01T05:35:40;2.00;99.90
48206;DHT22;33995;48.202;16.260;2022-12-01T05:38:24;2.00;99.90
48206;DHT22;33995;48.202;16.260;2022-12-01T05:40:55;2.00;99.90
48206;DHT22;33995;48.202;16.260;2022-12-01T05:43:28;2.00;99.90
48206;DHT22;33995;48.202;16.260;2022-12-01T05:45:59;1.90;99.90
48206;DHT22;33995;48.202;16.260;2022-12-01T05:48:38;1.80;99.90
48206;DHT22;33995;48.202;16.260;2022-12-01T05:51:13;1.90;99.90
48206;DHT22;33995;48.202;16.260;2022-12-01T05:53:42;2.00;99.90
48206;DHT22;33995;48.202;16.260;2022-12-01T05:56:12;2.00;99.90
48206;DHT22;33995;48.202;16.260;2022-12-01T05:58:42;2.00;99.90
48206;DHT22;33995;48.202;16.260;2022-12-01T06:01:13;2.10;99.90
48206;DHT22;33995;48.202;16.260;2022-12-01T06:03:43;2.10;99.90
48206;DHT22;33995;48.202;16.260;2022-12-01T06:06:13;2.00;99.90
48206;DHT22;33995;48.202;16.260;2022-12-01T06:08:43;1.90;99.90
48206;DHT22;33995;48.202;16.260;2022-12-01T06:11:14;2.00;99.90
48206;DHT22;33995;48.202;16.260;2022-12-01T06:13:45;2.00;99.90
48206;DHT22;33995;48.202;16.260;2022-12-01T06:16:19;2.10;99.90
48206;DHT22;33995;48.202;16.260;2022-12-01T06:18:47;2.10;99.90
48206;DHT22;33995;48.202;16.260;2022-12-01T06:21:16;2.20;99.90
48206;DHT22;33995;48.202;16.260;2022-12-01T06:23:47;2.10;99.90
48206;DHT22;33995;48.202;16.260;2022-12-01T06:26:17;2.10;99.90
48206;DHT22;33995;48.202;16.260;2022-12-01T06:28:47;2.00;99.90
48206;DHT22;33995;48.202;16.260;2022-12-01T06:31:18;2.00;99.90
48206;DHT22;33995;48.202;16.260;2022-12-01T06:33:49;2.00;99.90
48206;DHT22;33995;48.202;16.260;2022-12-01T06:36:21;2.10;99.90
48206;DHT22;33995;48.202;16.260;2022-12-01T06:38:49;2.20;99.90
48206;DHT22;33995;48.202;16.260;2022-12-01T06:41:20;2.20;99.90
48206;DHT22;33995;48.202;16.260;2022-12-01T06:43:49;2.20;99.90
48206;DHT22;33995;48.202;16.260;2022-12-01T06:46:18;2.10;99.90
48206;DHT22;33995;48.202;16.260;2022-12-01T06:48:48;2.20;99.90
48206;DHT22;33995;48.202;16.260;2022-12-01T06:51:19;2.20;99.90
48206;DHT22;33995;48.202;16.260;2022-12-01T06:53:51;2.30;99.90
48206;DHT22;33995;48.202;16.260;2022-12-01T06:56:32;2.30;99.90
48206;DHT22;33995;48.202;16.260;2022-12-01T06:59:14;2.30;99.90
48206;DHT22;33995;48.202;16.260;2022-12-01T07:01:45;2.30;99.90
48206;DHT22;33995;48.202;16.260;2022-12-01T07:04:15;2.30;99.90
48206;DHT22;33995;48.202;16.260;2022-12-01T07:06:46;2.30;99.90
48206;DHT22;33995;48.202;16.260;2022-12-01T07:09:17;2.30;99.90
48206;DHT22;33995;48.202;16.260;2022-12-01T07:11:45;2.20;99.90
48206;DHT22;33995;48.202;16.260;2022-12-01T07:14:22;2.30;99.90
48206;DHT22;33995;48.202;16.260;2022-12-01T07:16:54;2.40;99.90
48206;DHT22;33995;48.202;16.260;2022-12-01T07:19:26;2.30;99.90
48206;DHT22;33995;48.202;16.260;2022-12-01T07:21:56;2.40;99.90
48206;DHT22;33995;48.202;16.260;2022-12-01T07:24:28;2.40;99.90
48206;DHT22;33995;48.202;16.260;2022-12-01T07:26:58;2.40;99.90
48206;DHT22;33995;48.202;16.260;2022-12-01T07:29:29;2.50;99.90
48206;DHT22;33995;48.202;16.260;2022-12-01T07:31:58;2.50;99.90
48206;DHT22;33995;48.202;16.260;2022-12-01T07:34:36;2.50;99.90
48206;DHT22;33995;48.202;16.260;2022-12-01T07:37:11;2.50;99.90
48206;DHT22;33995;48.202;16.260;2022-12-01T07:39:43;2.60;99.90
48206;DHT22;33995;48.202;16.260;2022-12-01T07:42:11;2.50;99.90
48206;DHT22;33995;48.202;16.260;2022-12-01T07:44:46;2.60;99.90
48206;DHT22;33995;48.202;16.260;2022-12-01T07:47:16;2.60;99.90
48206;DHT22;33995;48.202;16.260;2022-12-01T07:49:43;2.60;99.90
48206;DHT22;33995;48.202;16.260;2022-12-01T07:52:13;2.60;99.90
48206;DHT22;33995;48.202;16.260;2022-12-01T07:54:45;2.50;99.90
48206;DHT22;33995;48.202;16.260;2022-12-01T07:57:26;2.50;99.90
48206;DHT22;33995;48.202;16.260;2022-12-01T08:00:02;2.50;99.90
48206;DHT22;33995;48.202;16.260;2022-12-01T08:02:52;2.60;99.90
48206;DHT22;33995;48.202;16.260;2022-12-01T08:05:25;2.50;99.90
48206;DHT22;33995;48.202;16.260;2022-12-01T08:07:58;2.50;99.90
48206;DHT22;33995;48.202;16.260;2022-12-01T08:10:39;2.60;99.90
48206;DHT22;33995;48.202;16.260;2022-12-01T08:13:09;2.70;99.90
48206;DHT22;33995;48.202;16.260;2022-12-01T08:15:46;2.90;99.90
48206;DHT22;33995;48.202;16.260;2022-12-01T08:18:13;2.90;99.90
48206;DHT22;33995;48.202;16.260;2022-12-01T08:20:46;2.90;99.90
48206;DHT22;33995;48.202;16.260;2022-12-01T08:23:16;3.10;99.90
48206;DHT22;33995;48.202;16.260;2022-12-01T08:25:44;3.30;99.90
48206;DHT22;33995;48.202;16.260;2022-12-01T08:28:16;3.40;99.90
48206;DHT22;33995;48.202;16.260;2022-12-01T08:30:47;3.60;99.90
48206;DHT22;33995;48.202;16.260;2022-12-01T08:33:18;3.70;99.90
48206;DHT22;33995;48.202;16.260;2022-12-01T08:35:51;3.80;99.90
48206;DHT22;33995;48.202;16.260;2022-12-01T08:38:19;4.00;99.90
48206;DHT22;33995;48.202;16.260;2022-12-01T08:40:48;4.10;99.90
48206;DHT22;33995;48.202;16.260;2022-12-01T08:43:18;4.30;99.90
48206;DHT22;33995;48.202;16.260;2022-12-01T08:46:07;4.40;99.90
48206;DHT22;33995;48.202;16.260;2022-12-01T08:48:45;4.30;99.90
48206;DHT22;33995;48.202;16.260;2022-12-01T08:51:17;4.50;99.90
48206;DHT22;33995;48.202;16.260;2022-12-01T08:53:47;4.40;99.90
48206;DHT22;33995;48.202;16.260;2022-12-01T08:56:38;4.60;99.90
48206;DHT22;33995;48.202;16.260;2022-12-01T08:59:09;4.40;99.90
48206;DHT22;33995;48.202;16.260;2022-12-01T09:01:38;4.50;99.90
48206;DHT22;33995;48.202;16.260;2022-12-01T09:04:23;4.20;99.90
48206;DHT22;33995;48.202;16.260;2022-12-01T09:06:55;4.30;99.90
48206;DHT22;33995;48.202;16.260;2022-12-01T09:09:27;4.40;99.90
48206;DHT22;33995;48.202;16.260;2022-12-01T09:11:56;4.50;99.90
48206;DHT22;33995;48.202;16.260;2022-12-01T09:14:24;4.60;99.90
48206;DHT22;33995;48.202;16.260;2022-12-01T09:16:53;4.60;99.90
48206;DHT22;33995;48.202;16.260;2022-12-01T09:19:29;4.50;99.90
48206;DHT22;33995;48.202;16.260;2022-12-01T09:22:00;4.60;99.90
48206;DHT22;33995;48.202;16.260;2022-12-01T09:24:28;4.60;99.90
48206;DHT22;33995;48.202;16.260;2022-12-01T09:27:00;4.50;99.90
48206;DHT22;33995;48.202;16.260;2022-12-01T09:29:37;4.60;99.90
48206;DHT22;33995;48.202;16.260;2022-12-01T09:32:06;4.50;99.90
48206;DHT22;33995;48.202;16.260;2022-12-01T09:34:38;4.60;99.90
48206;DHT22;33995;48.202;16.260;2022-12-01T09:37:10;4.50;99.90
48206;DHT22;33995;48.202;16.260;2022-12-01T09:39:41;4.50;99.90
48206;DHT22;33995;48.202;16.260;2022-12-01T09:42:15;4.50;99.90
48206;DHT22;33995;48.202;16.260;2022-12-01T09:44:52;4.60;99.90
48206;DHT22;33995;48.202;16.260;2022-12-01T09:47:32;4.70;99.90
48206;DHT22;33995;48.202;16.260;2022-12-01T09:50:22;4.90;99.90
48206;DHT22;33995;48.202;16.260;2022-12-01T09:53:06;5.00;99.90
48206;DHT22;33995;48.202;16.260;2022-12-01T09:55:39;5.10;99.90
48206;DHT22;33995;48.202;16.260;2022-12-01T09:58:24;5.30;99.90
48206;DHT22;33995;48.202;16.260;2022-12-01T10:00:55;5.40;99.90
48206;DHT22;33995;48.202;16.260;2022-12-01T10:03:46;5.20;99.90
48206;DHT22;33995;48.202;16.260;2022-12-01T10:06:43;5.20;99.90
48206;DHT22;33995;48.202;16.260;2022-12-01T10:12:28;5.10;99.90
48206;DHT22;33995;48.202;16.260;2022-12-01T10:15:40;4.90;99.90
48206;DHT22;33995;48.202;16.260;2022-12-01T10:24:28;4.80;99.90
48206;DHT22;33995;48.202;16.260;2022-12-01T10:27:25;4.60;99.90
48206;DHT22;33995;48.202;16.260;2022-12-01T10:30:15;4.90;99.90
48206;DHT22;33995;48.202;16.260;2022-12-01T10:32:56;4.80;99.90
48206;DHT22;33995;48.202;16.260;2022-12-01T10:35:32;4.70;99.90
48206;DHT22;33995;48.202;16.260;2022-12-01T10:38:28;4.90;99.90
48206;DHT22;33995;48.202;16.260;2022-12-01T10:41:03;5.00;99.90
48206;DHT22;33995;48.202;16.260;2022-12-01T10:43:41;5.10;99.90
48206;DHT22;33995;48.202;16.260;2022-12-01T10:46:38;4.90;99.90
48206;DHT22;33995;48.202;16.260;2022-12-01T10:49:16;5.00;99.90
48206;DHT22;33995;48.202;16.260;2022-12-01T10:51:50;5.10;99.90
48206;DHT22;33995;48.202;16.260;2022-12-01T10:54:30;5.20;99.90
48206;DHT22;33995;48.202;16.260;2022-12-01T10:57:02;5.30;99.90
48206;DHT22;33995;48.202;16.260;2022-12-01T11:00:00;5.40;99.90
48206;DHT22;33995;48.202;16.260;2022-12-01T11:02:31;5.40;99.90
48206;DHT22;33995;48.202;16.260;2022-12-01T11:05:25;5.30;99.90
48206;DHT22;33995;48.202;16.260;2022-12-01T11:08:01;5.30;99.90
48206;DHT22;33995;48.202;16.260;2022-12-01T11:10:46;5.00;99.90
48206;DHT22;33995;48.202;16.260;2022-12-01T11:13:28;5.20;99.90
48206;DHT22;33995;48.202;16.260;2022-12-01T11:16:03;5.30;99.90
48206;DHT22;33995;48.202;16.260;2022-12-01T11:18:37;5.10;99.90
48206;DHT22;33995;48.202;16.260;2022-12-01T11:21:14;5.00;99.90
48206;DHT22;33995;48.202;16.260;2022-12-01T11:23:49;5.20;99.90
48206;DHT22;33995;48.202;16.260;2022-12-01T11:29:02;5.20;99.90
48206;DHT22;33995;48.202;16.260;2022-12-01T11:31:39;5.30;99.90
48206;DHT22;33995;48.202;16.260;2022-12-01T11:34:19;5.40;99.90
48206;DHT22;33995;48.202;16.260;2022-12-01T11:36:52;5.30;99.90
48206;DHT22;33995;48.202;16.260;2022-12-01T11:39:47;5.40;99.90
48206;DHT22;33995;48.202;16.260;2022-12-01T11:42:29;5.40;99.90
48206;DHT22;33995;48.202;16.260;2022-12-01T11:45:26;5.50;99.90
48206;DHT22;33995;48.202;16.260;2022-12-01T11:53:48;6.00;99.90
48206;DHT22;33995;48.202;16.260;2022-12-01T11:56:32;6.00;99.90
48206;DHT22;33995;48.202;16.260;2022-12-01T11:59:14;6.20;99.90
48206;DHT22;33995;48.202;16.260;2022-12-01T12:05:15;6.20;99.90
48206;DHT22;33995;48.202;16.260;2022-12-01T12:08:28;6.20;99.90
48206;DHT22;33995;48.202;16.260;2022-12-01T12:11:18;6.20;99.90
48206;DHT22;33995;48.202;16.260;2022-12-01T12:17:38;5.80;99.90
48206;DHT22;33995;48.202;16.260;2022-12-01T12:23:33;6.20;99.90
48206;DHT22;33995;48.202;16.260;2022-12-01T12:26:51;6.20;99.90
48206;DHT22;33995;48.202;16.260;2022-12-01T12:39:02;6.00;99.90
48206;DHT22;33995;48.202;16.260;2022-12-01T12:41:47;6.00;99.90
48206;DHT22;33995;48.202;16.260;2022-12-01T12:50:02;5.90;99.90
48206;DHT22;33995;48.202;16.260;2022-12-01T12:52:40;5.80;99.90
48206;DHT22;33995;48.202;16.260;2022-12-01T12:57:58;5.70;99.90
48206;DHT22;33995;48.202;16.260;2022-12-01T13:00:35;5.80;99.90
48206;DHT22;33995;48.202;16.260;2022-12-01T13:09:27;5.70;99.90
48206;DHT22;33995;48.202;16.260;2022-12-01T13:12:11;5.60;99.90
48206;DHT22;33995;48.202;16.260;2022-12-01T13:15:18;5.60;99.90
48206;DHT22;33995;48.202;16.260;2022-12-01T13:18:07;5.50;99.90
48206;DHT22;33995;48.202;16.260;2022-12-01T13:20:40;5.60;99.90
48206;DHT22;33995;48.202;16.260;2022-12-01T13:23:18;5.60;99.90
48206;DHT22;33995;48.202;16.260;2022-12-01T13:25:56;5.60;99.90
48206;DHT22;33995;48.202;16.260;2022-12-01T13:31:18;5.40;99.90
48206;DHT22;33995;48.202;16.260;2022-12-01T13:34:03;5.40;99.90
48206;DHT22;33995;48.202;16.260;2022-12-01T13:36:33;5.40;99.90
48206;DHT22;33995;48.202;16.260;2022-12-01T13:39:39;5.30;99.90
48206;DHT22;33995;48.202;16.260;2022-12-01T13:42:23;5.30;99.90
48206;DHT22;33995;48.202;16.260;2022-12-01T13:44:59;5.30;99.90
48206;DHT22;33995;48.202;16.260;2022-12-01T13:47:46;5.20;99.90
48206;DHT22;33995;48.202;16.260;2022-12-01T13:53:28;5.20;99.90
48206;DHT22;33995;48.202;16.260;2022-12-01T13:58:47;5.10;99.90
48206;DHT22;33995;48.202;16.260;2022-12-01T14:04:27;5.10;99.90
48206;DHT22;33995;48.202;16.260;2022-12-01T14:07:32;5.00;99.90
48206;DHT22;33995;48.202;16.260;2022-12-01T14:10:29;5.00;99.90
48206;DHT22;33995;48.202;16.260;2022-12-01T14:13:17;4.80;99.90
48206;DHT22;33995;48.202;16.260;2022-12-01T14:16:00;4.90;99.90
48206;DHT22;33995;48.202;16.260;2022-12-01T14:18:57;4.80;99.90
48206;DHT22;33995;48.202;16.260;2022-12-01T14:21:45;4.90;99.90
48206;DHT22;33995;48.202;16.260;2022-12-01T14:24:37;4.90;99.90
48206;DHT22;33995;48.202;16.260;2022-12-01T14:27:40;4.80;99.90
48206;DHT22;33995;48.202;16.260;2022-12-01T14:33:41;4.70;99.90
48206;DHT22;33995;48.202;16.260;2022-12-01T14:36:43;4.70;99.90
48206;DHT22;33995;48.202;16.260;2022-12-01T14:39:35;4.70;99.90
48206;DHT22;33995;48.202;16.260;2022-12-01T14:45:19;4.70;99.90
48206;DHT22;33995;48.202;16.260;2022-12-01T14:47:58;4.70;99.90
48206;DHT22;33995;48.202;16.260;2022-12-01T14:50:52;4.60;99.90
48206;DHT22;33995;48.202;16.260;2022-12-01T14:53:28;4.60;99.90
48206;DHT22;33995;48.202;16.260;2022-12-01T14:56:14;4.50;99.90
48206;DHT22;33995;48.202;16.260;2022-12-01T14:58:59;4.50;99.90
48206;DHT22;33995;48.202;16.260;2022-12-01T15:01:32;4.50;99.90
48206;DHT22;33995;48.202;16.260;2022-12-01T15:04:15;4.50;99.90
48206;DHT22;33995;48.202;16.260;2022-12-01T15:06:45;4.50;99.90
48206;DHT22;33995;48.202;16.260;2022-12-01T15:09:17;4.40;99.90
48206;DHT22;33995;48.202;16.260;2022-12-01T15:12:05;4.40;99.90
48206;DHT22;33995;48.202;16.260;2022-12-01T15:14:47;4.30;99.90
48206;DHT22;33995;48.202;16.260;2022-12-01T15:17:33;4.30;99.90
48206;DHT22;33995;48.202;16.260;2022-12-01T15:20:32;4.30;99.90
48206;DHT22;33995;48.202;16.260;2022-12-01T15:23:14;4.30;99.90
48206;DHT22;33995;48.202;16.260;2022-12-01T15:25:45;4.30;99.90
48206;DHT22;33995;48.202;16.260;2022-12-01T15:28:18;4.30;99.90
48206;DHT22;33995;48.202;16.260;2022-12-01T15:30:53;4.20;99.90
48206;DHT22;33995;48.202;16.260;2022-12-01T15:33:30;4.20;99.90
48206;DHT22;33995;48.202;16.260;2022-12-01T15:36:04;4.20;99.90
48206;DHT22;33995;48.202;16.260;2022-12-01T15:38:36;4.20;99.90
48206;DHT22;33995;48.202;16.260;2022-12-01T15:41:19;4.20;99.90
48206;DHT22;33995;48.202;16.260;2022-12-01T15:43:58;4.10;99.90
48206;DHT22;33995;48.202;16.260;2022-12-01T15:46:42;4.20;99.90
48206;DHT22;33995;48.202;16.260;2022-12-01T15:49:27;4.10;99.90
48206;DHT22;33995;48.202;16.260;2022-12-01T15:52:08;4.00;99.90
48206;DHT22;33995;48.202;16.260;2022-12-01T15:54:40;4.00;99.90
48206;DHT22;33995;48.202;16.260;2022-12-01T15:57:17;4.00;99.90
48206;DHT22;33995;48.202;16.260;2022-12-01T15:59:54;4.10;99.90
48206;DHT22;33995;48.202;16.260;2022-12-01T16:02:28;4.00;99.90
48206;DHT22;33995;48.202;16.260;2022-12-01T16:07:36;4.00;99.90
48206;DHT22;33995;48.202;16.260;2022-12-01T16:10:35;4.00;99.90
48206;DHT22;33995;48.202;16.260;2022-12-01T16:21:55;3.90;99.90
48206;DHT22;33995;48.202;16.260;2022-12-01T16:24:52;3.90;99.90
48206;DHT22;33995;48.202;16.260;2022-12-01T16:27:26;3.90;99.90
48206;DHT22;33995;48.202;16.260;2022-12-01T16:30:05;3.80;99.90
48206;DHT22;33995;48.202;16.260;2022-12-01T16:32:39;3.80;99.90
48206;DHT22;33995;48.202;16.260;2022-12-01T16:35:24;3.70;99.90
48206;DHT22;33995;48.202;16.260;2022-12-01T16:38:11;3.70;99.90
48206;DHT22;33995;48.202;16.260;2022-12-01T16:40:51;3.60;99.90
48206;DHT22;33995;48.202;16.260;2022-12-01T16:43:23;3.50;99.90
48206;DHT22;33995;48.202;16.260;2022-12-01T16:46:12;3.50;99.90
48206;DHT22;33995;48.202;16.260;2022-12-01T16:48:42;3.50;99.90
48206;DHT22;33995;48.202;16.260;2022-12-01T16:51:12;3.50;99.90
48206;DHT22;33995;48.202;16.260;2022-12-01T16:53:53;3.50;99.90
48206;DHT22;33995;48.202;16.260;2022-12-01T16:56:23;3.40;99.90
48206;DHT22;33995;48.202;16.260;2022-12-01T16:59:04;3.30;99.90
48206;DHT22;33995;48.202;16.260;2022-12-01T17:01:33;3.30;99.90
48206;DHT22;33995;48.202;16.260;2022-12-01T17:04:04;3.30;99.90
48206;DHT22;33995;48.202;16.260;2022-12-01T17:06:35;3.20;99.90
48206;DHT22;33995;48.202;16.260;2022-12-01T17:09:16;3.30;99.90
48206;DHT22;33995;48.202;16.260;2022-12-01T17:11:46;3.10;99.90
48206;DHT22;33995;48.202;16.260;2022-12-01T17:14:27;3.00;99.90
48206;DHT22;33995;48.202;16.260;2022-12-01T17:17:06;3.10;99.90
48206;DHT22;33995;48.202;16.260;2022-12-01T17:19:41;3.10;99.90
48206;DHT22;33995;48.202;16.260;2022-12-01T17:22:11;2.90;99.90
48206;DHT22;33995;48.202;16.260;2022-12-01T17:24:40;2.70;99.90
48206;DHT22;33995;48.202;16.260;2022-12-01T17:27:10;2.70;99.90
48206;DHT22;33995;48.202;16.260;2022-12-01T17:29:40;2.70;99.90
48206;DHT22;33995;48.202;16.260;2022-12-01T17:32:13;2.80;99.90
48206;DHT22;33995;48.202;16.260;2022-12-01T17:34:50;2.80;99.90
48206;DHT22;33995;48.202;16.260;2022-12-01T17:37:18;2.80;99.90
48206;DHT22;33995;48.202;16.260;2022-12-01T17:40:03;2.80;99.90
48206;DHT22;33995;48.202;16.260;2022-12-01T17:42:34;2.80;99.90
48206;DHT22;33995;48.202;16.260;2022-12-01T17:45:08;2.80;99.90
48206;DHT22;33995;48.202;16.260;2022-12-01T17:47:39;2.70;99.90
48206;DHT22;33995;48.202;16.260;2022-12-01T17:50:15;2.70;99.90
48206;DHT22;33995;48.202;16.260;2022-12-01T17:52:45;2.70;99.90
48206;DHT22;33995;48.202;16.260;2022-12-01T17:55:13;2.70;99.90
48206;DHT22;33995;48.202;16.260;2022-12-01T17:57:42;2.60;99.90
48206;DHT22;33995;48.202;16.260;2022-12-01T18:00:16;2.50;99.90
48206;DHT22;33995;48.202;16.260;2022-12-01T18:02:49;2.60;99.90
48206;DHT22;33995;48.202;16.260;2022-12-01T18:05:24;2.40;99.90
48206;DHT22;33995;48.202;16.260;2022-12-01T18:08:00;2.40;99.90
48206;DHT22;33995;48.202;16.260;2022-12-01T18:10:31;2.40;99.90
48206;DHT22;33995;48.202;16.260;2022-12-01T18:13:03;2.40;99.90
48206;DHT22;33995;48.202;16.260;2022-12-01T18:15:38;2.30;99.90
48206;DHT22;33995;48.202;16.260;2022-12-01T18:18:10;2.30;99.90
48206;DHT22;33995;48.202;16.260;2022-12-01T18:20:42;2.20;99.90
48206;DHT22;33995;48.202;16.260;2022-12-01T18:23:14;2.20;99.90
48206;DHT22;33995;48.202;16.260;2022-12-01T18:25:52;2.10;99.90
48206;DHT22;33995;48.202;16.260;2022-12-01T18:28:20;2.10;99.90
48206;DHT22;33995;48.202;16.260;2022-12-01T18:30:51;2.20;99.90
48206;DHT22;33995;48.202;16.260;2022-12-01T18:33:23;2.20;99.90
48206;DHT22;33995;48.202;16.260;2022-12-01T18:35:55;2.10;99.90